sensor_id;sensor_type;location;lat;lon;timestamp;pressure;altitude;pressure_sealevel;temperature;humidity
11444;BME280;5778;47.856;12.154;2022-10-19T00:00:59;97258.28;;;16.12;100.00
11444;BME280;5778;47.856;12.154;2022-10-19T00:03:27;97261.22;;;16.11;100.00
11444;BME280;5778;47.856;12.154;2022-10-19T00:05:53;97260.69;;;16.14;100.00
11444;BME280;5778;47.856;12.154;2022-10-19T00:08:20;97256.41;;;16.13;100.00
11444;BME280;5778;47.856;12.154;2022-10-19T00:10:47;97258.53;;;16.11;100.00
11444;BME280;5778;47.856;12.154;2022-10-19T00:13:16;97257.75;;;16.10;100.00
11444;BME280;5778;47.856;12.154;2022-10-19T00:15:43;97263.91;;;16.11;100.00
11444;BME280;5778;47.856;12.154;2022-10-19T00:18:10;97262.81;;;16.12;100.00
11444;BME280;5778;47.856;12.154;2022-10-19T00:20:37;97256.94;;;16.15;100.00
11444;BME280;5778;47.856;12.154;2022-10-19T00:23:04;97262.31;;;16.15;100.00
11444;BME280;5778;47.856;12.154;2022-10-19T00:25:31;97262.56;;;16.13;100.00
11444;BME280;5778;47.856;12.154;2022-10-19T00:27:59;97253.19;;;16.16;100.00
11444;BME280;5778;47.856;12.154;2022-10-19T00:30:28;97253.16;;;16.11;100.00
11444;BME280;5778;47.856;12.154;2022-10-19T00:32:55;97252.66;;;16.14;100.00
11444;BME280;5778;47.856;12.154;2022-10-19T00:35:23;97249.94;;;16.09;100.00
11444;BME280;5778;47.856;12.154;2022-10-19T00:37:50;97254.75;;;16.02;100.00
11444;BME280;5778;47.856;12.154;2022-10-19T00:40:18;97252.59;;;15.99;100.00
11444;BME280;5778;47.856;12.154;2022-10-19T00:42:46;97256.59;;;15.91;100.00
11444;BME280;5778;47.856;12.154;2022-10-19T00:45:15;97263.28;;;15.89;100.00
11444;BME280;5778;47.856;12.154;2022-10-19T00:47:44;97268.66;;;15.94;100.00
11444;BME280;5778;47.856;12.154;2022-10-19T00:50:13;97263.03;;;15.90;100.00
11444;BME280;5778;47.856;12.154;2022-10-19T00:52:41;97256.28;;;15.83;100.00
11444;BME280;5778;47.856;12.154;2022-10-19T00:55:10;97255.72;;;15.76;100.00
11444;BME280;5778;47.856;12.154;2022-10-19T00:57:38;97260.00;;;15.72;100.00
11444;BME280;5778;47.856;12.154;2022-10-19T01:00:06;97269.09;;;15.71;100.00
11444;BME280;5778;47.856;12.154;2022-10-19T01:02:35;97250.34;;;15.76;100.00
11444;BME280;5778;47.856;12.154;2022-10-19T01:05:05;97254.91;;;15.75;100.00
11444;BME280;5778;47.856;12.154;2022-10-19T01:07:34;97255.72;;;15.76;100.00
11444;BME280;5778;47.856;12.154;2022-10-19T01:10:02;97253.28;;;15.74;100.00
11444;BME280;5778;47.856;12.154;2022-10-19T01:12:41;97245.47;;;15.68;100.00
11444;BME280;5778;47.856;12.154;2022-10-19T01:15:19;97248.13;;;15.63;100.00
11444;BME280;5778;47.856;12.154;2022-10-19T01:17:54;97241.69;;;15.54;100.00
11444;BME280;5778;47.856;12.154;2022-10-19T01:32:37;97236.84;;;15.14;100.00
11444;BME280;5778;47.856;12.154;2022-10-19T01:35:11;97249.88;;;15.01;100.00
11444;BME280;5778;47.856;12.154;2022-10-19T01:37:47;97237.81;;;14.98;100.00
11444;BME280;5778;47.856;12.154;2022-10-19T01:40:21;97235.66;;;14.95;100.00
11444;BME280;5778;47.856;12.154;2022-10-19T01:42:58;97238.34;;;14.95;100.00
11444;BME280;5778;47.856;12.154;2022-10-19T01:45:30;97242.59;;;14.91;100.00
11444;BME280;5778;47.856;12.154;2022-10-19T01:48:11;97236.66;;;14.84;100.00
11444;BME280;5778;47.856;12.154;2022-10-19T01:50:45;97239.00;;;14.81;100.00
11444;BME280;5778;47.856;12.154;2022-10-19T01:53:16;97241.16;;;14.79;100.00
11444;BME280;5778;47.856;12.154;2022-10-19T01:55:48;97240.13;;;14.85;100.00
11444;BME280;5778;47.856;12.154;2022-10-19T01:58:18;97237.44;;;14.85;100.00
11444;BME280;5778;47.856;12.154;2022-10-19T02:00:48;97232.00;;;14.75;100.00
11444;BME280;5778;47.856;12.154;2022-10-19T02:03:19;97221.53;;;14.68;100.00
11444;BME280;5778;47.856;12.154;2022-10-19T02:05:47;97230.63;;;14.72;100.00
11444;BME280;5778;47.856;12.154;2022-10-19T02:08:20;97228.84;;;14.46;100.00
11444;BME280;5778;47.856;12.154;2022-10-19T02:10:48;97219.50;;;14.49;100.00
11444;BME280;5778;47.856;12.154;2022-10-19T02:13:17;97213.28;;;14.43;100.00
11444;BME280;5778;47.856;12.154;2022-10-19T02:15:47;97215.41;;;14.41;100.00
11444;BME280;5778;47.856;12.154;2022-10-19T02:18:19;97225.53;;;14.39;100.00
11444;BME280;5778;47.856;12.154;2022-10-19T02:20:50;97223.13;;;14.38;100.00
11444;BME280;5778;47.856;12.154;2022-10-19T02:23:19;97227.31;;;14.29;100.00
11444;BME280;5778;47.856;12.154;2022-10-19T02:25:47;97229.28;;;14.38;100.00
11444;BME280;5778;47.856;12.154;2022-10-19T02:28:15;97226.91;;;14.42;100.00
11444;BME280;5778;47.856;12.154;2022-10-19T02:30:42;97226.56;;;14.33;100.00
11444;BME280;5778;47.856;12.154;2022-10-19T02:33:09;97226.00;;;14.31;100.00
11444;BME280;5778;47.856;12.154;2022-10-19T02:35:38;97223.09;;;14.33;100.00
11444;BME280;5778;47.856;12.154;2022-10-19T02:38:06;97215.09;;;14.38;100.00
11444;BME280;5778;47.856;12.154;2022-10-19T02:40:53;97215.69;;;14.45;100.00
11444;BME280;5778;47.856;12.154;2022-10-19T02:43:24;97214.69;;;14.51;100.00
11444;BME280;5778;47.856;12.154;2022-10-19T02:45:58;97209.31;;;14.51;100.00
11444;BME280;5778;47.856;12.154;2022-10-19T02:48:28;97208.81;;;14.54;100.00
11444;BME280;5778;47.856;12.154;2022-10-19T02:50:58;97214.19;;;14.59;100.00
11444;BME280;5778;47.856;12.154;2022-10-19T02:53:25;97212.59;;;14.58;100.00
11444;BME280;5778;47.856;12.154;2022-10-19T02:55:52;97212.84;;;14.56;100.00
11444;BME280;5778;47.856;12.154;2022-10-19T02:58:18;97214.16;;;14.54;100.00
11444;BME280;5778;47.856;12.154;2022-10-19T03:00:46;97215.44;;;14.46;100.00
11444;BME280;5778;47.856;12.154;2022-10-19T03:03:13;97216.81;;;14.49;100.00
11444;BME280;5778;47.856;12.154;2022-10-19T03:05:39;97206.13;;;14.54;100.00
11444;BME280;5778;47.856;12.154;2022-10-19T03:08:08;97216.88;;;14.59;100.00
11444;BME280;5778;47.856;12.154;2022-10-19T03:10:35;97213.38;;;14.53;100.00
11444;BME280;5778;47.856;12.154;2022-10-19T03:13:02;97206.75;;;14.61;100.00
11444;BME280;5778;47.856;12.154;2022-10-19T03:15:29;97212.13;;;14.66;100.00
11444;BME280;5778;47.856;12.154;2022-10-19T03:17:55;97210.25;;;14.66;100.00
11444;BME280;5778;47.856;12.154;2022-10-19T03:20:22;97209.19;;;14.67;100.00
11444;BME280;5778;47.856;12.154;2022-10-19T03:22:49;97206.25;;;14.69;100.00
11444;BME280;5778;47.856;12.154;2022-10-19T03:25:18;97213.22;;;14.70;100.00
11444;BME280;5778;47.856;12.154;2022-10-19T03:27:45;97210.59;;;14.75;100.00
11444;BME280;5778;47.856;12.154;2022-10-19T03:30:15;97214.31;;;14.74;100.00
11444;BME280;5778;47.856;12.154;2022-10-19T03:32:43;97213.00;;;14.76;100.00
11444;BME280;5778;47.856;12.154;2022-10-19T03:35:10;97210.91;;;14.83;100.00
11444;BME280;5778;47.856;12.154;2022-10-19T03:37:37;97215.69;;;14.76;100.00
11444;BME280;5778;47.856;12.154;2022-10-19T03:40:05;97218.06;;;14.73;100.00
11444;BME280;5778;47.856;12.154;2022-10-19T03:42:33;97218.91;;;14.73;100.00
11444;BME280;5778;47.856;12.154;2022-10-19T03:45:01;97212.47;;;14.74;100.00
11444;BME280;5778;47.856;12.154;2022-10-19T03:47:28;97213.31;;;14.80;100.00
11444;BME280;5778;47.856;12.154;2022-10-19T03:49:55;97210.91;;;14.83;100.00
11444;BME280;5778;47.856;12.154;2022-10-19T03:52:22;97214.69;;;14.87;100.00
11444;BME280;5778;47.856;12.154;2022-10-19T03:54:49;97210.16;;;14.88;100.00
11444;BME280;5778;47.856;12.154;2022-10-19T03:57:16;97218.44;;;14.86;100.00
11444;BME280;5778;47.856;12.154;2022-10-19T03:59:44;97217.63;;;14.86;100.00
11444;BME280;5778;47.856;12.154;2022-10-19T04:02:12;97209.34;;;14.87;100.00
11444;BME280;5778;47.856;12.154;2022-10-19T04:04:39;97201.84;;;14.89;100.00
11444;BME280;5778;47.856;12.154;2022-10-19T04:07:06;97195.16;;;14.92;100.00
11444;BME280;5778;47.856;12.154;2022-10-19T04:09:33;97203.19;;;14.92;100.00
11444;BME280;5778;47.856;12.154;2022-10-19T04:12:00;97203.78;;;14.94;100.00
11444;BME280;5778;47.856;12.154;2022-10-19T04:14:28;97205.13;;;14.96;100.00
11444;BME280;5778;47.856;12.154;2022-10-19T04:16:57;97204.06;;;14.97;100.00
11444;BME280;5778;47.856;12.154;2022-10-19T04:19:24;97196.56;;;14.99;100.00
11444;BME280;5778;47.856;12.154;2022-10-19T04:21:51;97207.84;;;15.01;100.00
11444;BME280;5778;47.856;12.154;2022-10-19T04:24:18;97199.28;;;15.04;100.00
11444;BME280;5778;47.856;12.154;2022-10-19T04:26:47;97196.34;;;15.06;100.00
11444;BME280;5778;47.856;12.154;2022-10-19T04:29:16;97196.56;;;14.99;100.00
11444;BME280;5778;47.856;12.154;2022-10-19T04:31:44;97197.84;;;14.87;100.00
11444;BME280;5778;47.856;12.154;2022-10-19T04:34:12;97196.72;;;14.83;100.00
11444;BME280;5778;47.856;12.154;2022-10-19T04:36:39;97196.78;;;14.88;100.00
11444;BME280;5778;47.856;12.154;2022-10-19T04:39:07;97194.09;;;14.88;100.00
11444;BME280;5778;47.856;12.154;2022-10-19T04:41:36;97202.13;;;14.88;100.00
11444;BME280;5778;47.856;12.154;2022-10-19T04:44:04;97202.63;;;14.85;100.00
11444;BME280;5778;47.856;12.154;2022-10-19T04:46:41;97198.34;;;14.84;100.00
11444;BME280;5778;47.856;12.154;2022-10-19T04:49:08;97197.75;;;14.77;100.00
11444;BME280;5778;47.856;12.154;2022-10-19T04:54:41;97195.84;;;14.72;100.00
11444;BME280;5778;47.856;12.154;2022-10-19T04:57:08;97188.59;;;14.68;100.00
11444;BME280;5778;47.856;12.154;2022-10-19T04:59:35;97182.72;;;14.71;100.00
11444;BME280;5778;47.856;12.154;2022-10-19T05:02:01;97187.00;;;14.72;100.00
11444;BME280;5778;47.856;12.154;2022-10-19T05:04:28;97180.59;;;14.73;100.00
11444;BME280;5778;47.856;12.154;2022-10-19T05:07:02;97178.44;;;14.75;100.00
11444;BME280;5778;47.856;12.154;2022-10-19T05:09:29;97176.31;;;14.72;100.00
11444;BME280;5778;47.856;12.154;2022-10-19T05:11:58;97174.13;;;14.69;100.00
11444;BME280;5778;47.856;12.154;2022-10-19T05:14:26;97167.97;;;14.68;100.00
11444;BME280;5778;47.856;12.154;2022-10-19T05:16:52;97176.06;;;14.73;100.00
11444;BME280;5778;47.856;12.154;2022-10-19T05:19:20;97171.78;;;14.77;100.00
11444;BME280;5778;47.856;12.154;2022-10-19T05:22:20;97173.66;;;14.77;100.00
11444;BME280;5778;47.856;12.154;2022-10-19T05:24:47;97172.59;;;14.78;100.00
11444;BME280;5778;47.856;12.154;2022-10-19T05:27:24;97173.66;;;14.77;100.00
11444;BME280;5778;47.856;12.154;2022-10-19T05:29:51;97168.28;;;14.72;100.00
11444;BME280;5778;47.856;12.154;2022-10-19T05:32:18;97176.34;;;14.77;100.00
11444;BME280;5778;47.856;12.154;2022-10-19T05:34:46;97172.34;;;14.79;100.00
11444;BME280;5778;47.856;12.154;2022-10-19T05:37:14;97172.06;;;14.81;100.00
11444;BME280;5778;47.856;12.154;2022-10-19T05:39:41;97168.84;;;14.79;100.00
11444;BME280;5778;47.856;12.154;2022-10-19T05:42:08;97165.63;;;14.77;100.00
11444;BME280;5778;47.856;12.154;2022-10-19T05:44:36;97159.22;;;14.78;100.00
11444;BME280;5778;47.856;12.154;2022-10-19T05:47:29;97162.41;;;14.80;100.00
11444;BME280;5778;47.856;12.154;2022-10-19T05:49:56;97154.44;;;14.85;100.00
11444;BME280;5778;47.856;12.154;2022-10-19T05:52:23;97162.75;;;14.88;100.00
11444;BME280;5778;47.856;12.154;2022-10-19T05:54:50;97159.81;;;14.90;100.00
11444;BME280;5778;47.856;12.154;2022-10-19T05:57:18;97159.56;;;14.91;100.00
11444;BME280;5778;47.856;12.154;2022-10-19T05:59:46;97160.34;;;14.87;100.00
11444;BME280;5778;47.856;12.154;2022-10-19T06:02:13;97162.47;;;14.85;100.00
11444;BME280;5778;47.856;12.154;2022-10-19T06:04:41;97163.03;;;14.87;100.00
11444;BME280;5778;47.856;12.154;2022-10-19T06:07:08;97172.66;;;14.88;100.00
11444;BME280;5778;47.856;12.154;2022-10-19T06:09:34;97167.81;;;14.85;100.00
11444;BME280;5778;47.856;12.154;2022-10-19T06:12:02;97163.28;;;14.85;100.00
11444;BME280;5778;47.856;12.154;2022-10-19T06:14:29;97170.00;;;14.88;100.00
11444;BME280;5778;47.856;12.154;2022-10-19T06:16:58;97178.56;;;14.90;100.00
11444;BME280;5778;47.856;12.154;2022-10-19T06:19:24;97182.84;;;14.91;100.00
11444;BME280;5778;47.856;12.154;2022-10-19T06:21:52;97174.34;;;14.99;100.00
11444;BME280;5778;47.856;12.154;2022-10-19T06:24:18;97173.00;;;14.96;100.00
11444;BME280;5778;47.856;12.154;2022-10-19T06:26:46;97174.38;;;15.04;100.00
11444;BME280;5778;47.856;12.154;2022-10-19T06:29:13;97177.59;;;15.06;100.00
11444;BME280;5778;47.856;12.154;2022-10-19T06:31:40;97177.59;;;15.06;100.00
11444;BME280;5778;47.856;12.154;2022-10-19T06:34:08;97181.13;;;15.11;100.00
11444;BME280;5778;47.856;12.154;2022-10-19T06:36:38;97180.28;;;15.06;100.00
11444;BME280;5778;47.856;12.154;2022-10-19T06:39:05;97185.06;;;14.99;100.00
11444;BME280;5778;47.856;12.154;2022-10-19T06:41:32;97193.13;;;15.04;100.00
11444;BME280;5778;47.856;12.154;2022-10-19T06:44:16;97190.78;;;15.12;100.00
11444;BME280;5778;47.856;12.154;2022-10-19T06:46:55;97193.75;;;15.21;100.00
11444;BME280;5778;47.856;12.154;2022-10-19T06:49:23;97185.75;;;15.26;100.00
11444;BME280;5778;47.856;12.154;2022-10-19T06:55:13;97192.19;;;15.30;100.00
11444;BME280;5778;47.856;12.154;2022-10-19T06:57:58;97199.78;;;15.38;100.00
11444;BME280;5778;47.856;12.154;2022-10-19T07:00:26;97202.47;;;15.43;100.00
11444;BME280;5778;47.856;12.154;2022-10-19T07:02:54;97199.50;;;15.34;100.00
11444;BME280;5778;47.856;12.154;2022-10-19T07:05:22;97206.22;;;15.37;100.00
11444;BME280;5778;47.856;12.154;2022-10-19T07:11:15;97210.81;;;15.46;100.00
11444;BME280;5778;47.856;12.154;2022-10-19T07:13:43;97213.50;;;15.46;100.00
11444;BME280;5778;47.856;12.154;2022-10-19T07:16:24;97221.25;;;15.43;100.00
11444;BME280;5778;47.856;12.154;2022-10-19T07:18:52;97214.84;;;15.49;100.00
11444;BME280;5778;47.856;12.154;2022-10-19T07:21:21;97214.59;;;15.50;100.00
11444;BME280;5778;47.856;12.154;2022-10-19T07:23:49;97221.75;;;15.40;100.00
11444;BME280;5778;47.856;12.154;2022-10-19T07:26:18;97219.66;;;15.47;100.00
11444;BME280;5778;47.856;12.154;2022-10-19T07:28:48;97210.00;;;15.46;100.00
11444;BME280;5778;47.856;12.154;2022-10-19T07:31:17;97206.75;;;15.39;100.00
11444;BME280;5778;47.856;12.154;2022-10-19T07:33:45;97208.94;;;15.47;100.00
11444;BME280;5778;47.856;12.154;2022-10-19T07:36:31;97205.69;;;15.45;100.00
11444;BME280;5778;47.856;12.154;2022-10-19T07:38:59;97205.16;;;15.43;100.00
11444;BME280;5778;47.856;12.154;2022-10-19T07:41:27;97207.91;;;15.53;100.00
11444;BME280;5778;47.856;12.154;2022-10-19T07:43:54;97215.44;;;15.66;100.00
11444;BME280;5778;47.856;12.154;2022-10-19T07:46:56;97208.25;;;15.76;100.00
11444;BME280;5778;47.856;12.154;2022-10-19T07:49:23;97202.09;;;15.81;100.00
11444;BME280;5778;47.856;12.154;2022-10-19T07:51:52;97211.75;;;15.82;100.00
11444;BME280;5778;47.856;12.154;2022-10-19T07:54:20;97207.16;;;15.72;100.00
11444;BME280;5778;47.856;12.154;2022-10-19T07:57:18;97207.22;;;15.82;100.00
11444;BME280;5778;47.856;12.154;2022-10-19T07:59:46;97207.22;;;15.82;100.00
11444;BME280;5778;47.856;12.154;2022-10-19T08:02:15;97214.47;;;15.92;100.00
11444;BME280;5778;47.856;12.154;2022-10-19T08:04:42;97208.84;;;16.03;100.00
11444;BME280;5778;47.856;12.154;2022-10-19T08:10:30;97203.28;;;16.25;100.00
11444;BME280;5778;47.856;12.154;2022-10-19T08:12:57;97200.63;;;16.35;100.00
11444;BME280;5778;47.856;12.154;2022-10-19T08:15:24;97199.81;;;16.34;100.00
11444;BME280;5778;47.856;12.154;2022-10-19T08:18:04;97204.34;;;16.34;100.00
11444;BME280;5778;47.856;12.154;2022-10-19T08:20:41;97196.31;;;16.34;100.00
11444;BME280;5778;47.856;12.154;2022-10-19T08:23:09;97198.97;;;16.34;100.00
11444;BME280;5778;47.856;12.154;2022-10-19T08:25:37;97199.84;;;16.44;100.00
11444;BME280;5778;47.856;12.154;2022-10-19T08:28:05;97200.88;;;16.38;100.00
11444;BME280;5778;47.856;12.154;2022-10-19T08:30:33;97200.88;;;16.28;100.00
11444;BME280;5778;47.856;12.154;2022-10-19T08:33:01;97203.53;;;16.13;100.00
11444;BME280;5778;47.856;12.154;2022-10-19T08:35:29;97199.16;;;15.87;100.00
11444;BME280;5778;47.856;12.154;2022-10-19T08:38:10;97193.81;;;15.97;100.00
11444;BME280;5778;47.856;12.154;2022-10-19T08:40:38;97199.44;;;15.86;100.00
11444;BME280;5778;47.856;12.154;2022-10-19T08:43:12;97197.56;;;15.86;100.00
11444;BME280;5778;47.856;12.154;2022-10-19T08:45:46;97195.13;;;15.85;100.00
11444;BME280;5778;47.856;12.154;2022-10-19T08:48:23;97203.72;;;15.82;100.00
11444;BME280;5778;47.856;12.154;2022-10-19T08:51:04;97206.44;;;15.92;100.00
11444;BME280;5778;47.856;12.154;2022-10-19T08:53:38;97205.34;;;15.93;100.00
11444;BME280;5778;47.856;12.154;2022-10-19T08:56:28;97212.84;;;15.86;100.00
11444;BME280;5778;47.856;12.154;2022-10-19T08:59:11;97206.66;;;15.85;100.00
11444;BME280;5778;47.856;12.154;2022-10-19T09:01:44;97207.50;;;15.86;100.00
11444;BME280;5778;47.856;12.154;2022-10-19T09:04:18;97204.25;;;15.84;100.00
11444;BME280;5778;47.856;12.154;2022-10-19T09:06:56;97208.03;;;15.88;100.00
11444;BME280;5778;47.856;12.154;2022-10-19T09:09:24;97202.72;;;16.03;100.00
11444;BME280;5778;47.856;12.154;2022-10-19T09:12:02;97197.91;;;16.15;100.00
11444;BME280;5778;47.856;12.154;2022-10-19T09:14:32;97199.00;;;16.24;100.00
11444;BME280;5778;47.856;12.154;2022-10-19T09:17:16;97197.34;;;16.23;100.00
11444;BME280;5778;47.856;12.154;2022-10-19T09:19:43;97193.63;;;16.19;100.00
11444;BME280;5778;47.856;12.154;2022-10-19T09:22:20;97186.88;;;16.06;100.00
11444;BME280;5778;47.856;12.154;2022-10-19T09:24:51;97198.16;;;16.13;100.00
11444;BME280;5778;47.856;12.154;2022-10-19T09:27:29;97192.00;;;16.28;100.00
11444;BME280;5778;47.856;12.154;2022-10-19T09:30:02;97193.66;;;16.44;100.00
11444;BME280;5778;47.856;12.154;2022-10-19T09:32:32;97189.13;;;16.44;100.00
11444;BME280;5778;47.856;12.154;2022-10-19T09:35:02;97200.38;;;16.61;100.00
11444;BME280;5778;47.856;12.154;2022-10-19T09:37:46;97195.28;;;16.55;100.00
11444;BME280;5778;47.856;12.154;2022-10-19T09:40:16;97195.81;;;16.42;100.00
11444;BME280;5778;47.856;12.154;2022-10-19T09:42:46;97189.59;;;16.36;100.00
11444;BME280;5778;47.856;12.154;2022-10-19T09:45:30;97196.63;;;16.52;100.00
11444;BME280;5778;47.856;12.154;2022-10-19T09:47:59;97203.06;;;16.56;100.00
11444;BME280;5778;47.856;12.154;2022-10-19T09:50:50;97198.78;;;16.55;100.00
11444;BME280;5778;47.856;12.154;2022-10-19T09:53:20;97196.63;;;16.67;100.00
11444;BME280;5778;47.856;12.154;2022-10-19T09:55:52;97191.25;;;16.72;100.00
11444;BME280;5778;47.856;12.154;2022-10-19T09:58:25;97191.00;;;16.79;100.00
11444;BME280;5778;47.856;12.154;2022-10-19T10:00:54;97199.84;;;16.94;100.00
11444;BME280;5778;47.856;12.154;2022-10-19T10:03:25;97191.25;;;17.02;100.00
11444;BME280;5778;47.856;12.154;2022-10-19T10:05:57;97193.63;;;17.04;100.00
11444;BME280;5778;47.856;12.154;2022-10-19T10:08:29;97201.16;;;17.17;100.00
11444;BME280;5778;47.856;12.154;2022-10-19T10:11:03;97199.78;;;17.29;100.00
11444;BME280;5778;47.856;12.154;2022-10-19T10:13:35;97199.50;;;17.31;100.00
11444;BME280;5778;47.856;12.154;2022-10-19T10:16:06;97198.16;;;17.33;100.00
11444;BME280;5778;47.856;12.154;2022-10-19T10:18:37;97195.72;;;17.32;100.00
11444;BME280;5778;47.856;12.154;2022-10-19T10:21:28;97192.25;;;17.26;100.00
11444;BME280;5778;47.856;12.154;2022-10-19T10:24:02;97194.94;;;17.31;100.00
11444;BME280;5778;47.856;12.154;2022-10-19T10:26:56;97191.44;;;17.26;100.00
11444;BME280;5778;47.856;12.154;2022-10-19T10:29:26;97189.31;;;17.28;100.00
11444;BME280;5778;47.856;12.154;2022-10-19T10:31:58;97192.78;;;17.28;100.00
11444;BME280;5778;47.856;12.154;2022-10-19T10:34:34;97188.75;;;17.21;100.00
11444;BME280;5778;47.856;12.154;2022-10-19T10:37:17;97189.31;;;17.23;100.00
11444;BME280;5778;47.856;12.154;2022-10-19T10:39:50;97193.88;;;17.22;100.00
11444;BME280;5778;47.856;12.154;2022-10-19T10:42:22;97187.16;;;17.20;100.00
11444;BME280;5778;47.856;12.154;2022-10-19T10:44:53;97179.06;;;17.30;100.00
11444;BME280;5778;47.856;12.154;2022-10-19T10:47:27;97170.19;;;17.39;100.00
11444;BME280;5778;47.856;12.154;2022-10-19T10:49:56;97165.81;;;17.63;100.00
11444;BME280;5778;47.856;12.154;2022-10-19T10:52:28;97162.34;;;17.48;100.00
11444;BME280;5778;47.856;12.154;2022-10-19T10:55:01;97163.69;;;17.55;100.00
11444;BME280;5778;47.856;12.154;2022-10-19T10:57:33;97158.63;;;17.34;100.00
11444;BME280;5778;47.856;12.154;2022-10-19T11:00:06;97160.41;;;17.68;100.00
11444;BME280;5778;47.856;12.154;2022-10-19T11:02:41;97150.31;;;17.94;100.00
11444;BME280;5778;47.856;12.154;2022-10-19T11:05:16;97149.16;;;18.10;100.00
11444;BME280;5778;47.856;12.154;2022-10-19T11:08:11;97143.66;;;18.25;100.00
11444;BME280;5778;47.856;12.154;2022-10-19T11:10:46;97143.38;;;18.21;100.00
11444;BME280;5778;47.856;12.154;2022-10-19T11:13:20;97143.97;;;18.18;100.00
11444;BME280;5778;47.856;12.154;2022-10-19T11:16:23;97147.72;;;18.22;100.00
11444;BME280;5778;47.856;12.154;2022-10-19T11:18:55;97133.53;;;18.07;100.00
11444;BME280;5778;47.856;12.154;2022-10-19T11:21:31;97136.59;;;17.95;100.00
11444;BME280;5778;47.856;12.154;2022-10-19T11:24:06;97132.06;;;17.81;100.00
11444;BME280;5778;47.856;12.154;2022-10-19T11:26:58;97129.34;;;17.86;100.00
11444;BME280;5778;47.856;12.154;2022-10-19T11:29:44;97123.44;;;17.89;100.00
11444;BME280;5778;47.856;12.154;2022-10-19T11:32:24;97115.59;;;17.92;100.00
11444;BME280;5778;47.856;12.154;2022-10-19T11:35:03;97109.91;;;17.99;100.00
11444;BME280;5778;47.856;12.154;2022-10-19T11:37:52;97109.16;;;17.88;100.00
11444;BME280;5778;47.856;12.154;2022-10-19T11:40:28;97103.47;;;17.95;100.00
11444;BME280;5778;47.856;12.154;2022-10-19T11:43:01;97105.59;;;18.03;100.00
11444;BME280;5778;47.856;12.154;2022-10-19T11:45:39;97102.38;;;17.96;100.00
11444;BME280;5778;47.856;12.154;2022-10-19T11:51:05;97104.38;;;17.80;100.00
11444;BME280;5778;47.856;12.154;2022-10-19T11:53:46;97099.78;;;17.81;100.00
11444;BME280;5778;47.856;12.154;2022-10-19T11:56:24;97098.84;;;17.62;100.00
11444;BME280;5778;47.856;12.154;2022-10-19T11:58:57;97093.97;;;17.64;100.00
11444;BME280;5778;47.856;12.154;2022-10-19T12:01:39;97091.66;;;17.47;100.00
11444;BME280;5778;47.856;12.154;2022-10-19T12:04:22;97084.28;;;17.68;100.00
11444;BME280;5778;47.856;12.154;2022-10-19T12:10:24;97075.25;;;17.87;100.00
11444;BME280;5778;47.856;12.154;2022-10-19T12:12:56;97070.63;;;17.98;100.00
11444;BME280;5778;47.856;12.154;2022-10-19T12:15:28;97079.69;;;17.73;100.00
11444;BME280;5778;47.856;12.154;2022-10-19T12:18:01;97073.66;;;17.86;100.00
11444;BME280;5778;47.856;12.154;2022-10-19T12:20:37;97070.91;;;17.96;100.00
11444;BME280;5778;47.856;12.154;2022-10-19T12:23:24;97077.03;;;18.02;100.00
11444;BME280;5778;47.856;12.154;2022-10-19T12:25:53;97070.09;;;18.29;100.00
11444;BME280;5778;47.856;12.154;2022-10-19T12:28:26;97072.56;;;18.26;100.00
11444;BME280;5778;47.856;12.154;2022-10-19T12:30:54;97062.53;;;18.31;100.00
11444;BME280;5778;47.856;12.154;2022-10-19T12:33:26;97061.91;;;18.11;100.00
11444;BME280;5778;47.856;12.154;2022-10-19T12:36:09;97061.22;;;18.29;100.00
11444;BME280;5778;47.856;12.154;2022-10-19T12:38:44;97060.84;;;18.07;100.00
11444;BME280;5778;47.856;12.154;2022-10-19T12:41:21;97057.16;;;18.03;100.00
11444;BME280;5778;47.856;12.154;2022-10-19T12:44:00;97054.31;;;18.18;100.00
11444;BME280;5778;47.856;12.154;2022-10-19T12:49:59;97040.88;;;18.46;100.00
11444;BME280;5778;47.856;12.154;2022-10-19T12:52:45;97036.47;;;18.27;100.00
11444;BME280;5778;47.856;12.154;2022-10-19T12:55:25;97031.91;;;18.27;100.00
11444;BME280;5778;47.856;12.154;2022-10-19T12:58:18;97033.44;;;18.38;100.00
11444;BME280;5778;47.856;12.154;2022-10-19T13:00:57;97026.66;;;18.41;100.00
11444;BME280;5778;47.856;12.154;2022-10-19T13:03:28;97023.63;;;18.47;100.00
11444;BME280;5778;47.856;12.154;2022-10-19T13:05:57;97020.03;;;18.57;100.00
11444;BME280;5778;47.856;12.154;2022-10-19T13:08:28;97019.53;;;18.78;100.00
11444;BME280;5778;47.856;12.154;2022-10-19T13:11:06;97015.25;;;19.01;100.00
11444;BME280;5778;47.856;12.154;2022-10-19T13:14:02;97007.78;;;18.93;100.00
11444;BME280;5778;47.856;12.154;2022-10-19T13:16:58;97009.25;;;19.04;100.00
11444;BME280;5778;47.856;12.154;2022-10-19T13:19:25;97003.81;;;19.09;100.00
11444;BME280;5778;47.856;12.154;2022-10-19T13:22:26;97005.81;;;19.22;100.00
11444;BME280;5778;47.856;12.154;2022-10-19T13:25:27;97003.97;;;19.17;100.00
11444;BME280;5778;47.856;12.154;2022-10-19T13:28:34;97002.13;;;19.36;100.00
11444;BME280;5778;47.856;12.154;2022-10-19T13:31:03;96996.38;;;19.43;100.00
11444;BME280;5778;47.856;12.154;2022-10-19T13:33:49;96990.75;;;19.39;100.00
11444;BME280;5778;47.856;12.154;2022-10-19T13:36:37;96995.13;;;19.35;100.00
11444;BME280;5778;47.856;12.154;2022-10-19T13:39:11;96990.09;;;19.29;100.00
11444;BME280;5778;47.856;12.154;2022-10-19T13:41:49;96985.22;;;19.31;100.00
11444;BME280;5778;47.856;12.154;2022-10-19T13:44:21;96983.47;;;19.40;100.00
11444;BME280;5778;47.856;12.154;2022-10-19T13:50:24;96983.22;;;19.55;100.00
11444;BME280;5778;47.856;12.154;2022-10-19T13:53:29;96987.56;;;19.56;100.00
11444;BME280;5778;47.856;12.154;2022-10-19T13:56:07;96978.94;;;19.54;100.00